Time;durP1;ratioP1;P1;durP2;ratioP2;P2;SDS_P1;SDS_P2;PMS_P1;PMS_P2;Temp;Humidity;BMP_temperature;BMP_pressure;BME280_temperature;BME280_humidity;BME280_pressure;Samples;Min_cycle;Max_cycle;Signal;HPM_P1;HPM_P2
2021/09/23 00:01:40;;;;;;;13.82;12.60;;;8.50;84.90;;;;;;5011030;29;20469;-71
2021/09/23 00:06:48;;;;;;;13.20;12.07;;;8.60;84.20;;;;;;4993072;29;20118;-71
2021/09/23 00:09:20;;;;;;;13.65;12.32;;;8.60;84.10;;;;;;5011255;29;20064;-71
2021/09/23 00:11:52;;;;;;;14.80;12.63;;;8.60;83.80;;;;;;5010090;29;20057;-70
2021/09/23 00:14:24;;;;;;;14.65;13.25;;;8.60;83.70;;;;;;5009456;29;20136;-70
2021/09/23 00:16:56;;;;;;;13.65;12.32;;;8.60;84.40;;;;;;5009883;29;20098;-71
2021/09/23 00:19:28;;;;;;;13.85;12.65;;;8.50;84.10;;;;;;5009529;29;20076;-71
2021/09/23 00:22:00;;;;;;;14.05;12.60;;;8.50;84.80;;;;;;5010010;29;20049;-71
2021/09/23 00:24:32;;;;;;;12.93;11.73;;;8.50;84.80;;;;;;5010839;29;20068;-71
2021/09/23 00:27:04;;;;;;;13.77;12.57;;;8.50;84.50;;;;;;5008763;29;20861;-71
2021/09/23 00:29:36;;;;;;;13.55;12.38;;;8.50;84.80;;;;;;5010765;29;20425;-71
2021/09/23 00:32:08;;;;;;;13.70;12.50;;;8.50;84.90;;;;;;5008474;29;20068;-71
2021/09/23 00:34:40;;;;;;;13.30;12.20;;;8.50;84.80;;;;;;4991599;29;20061;-71
2021/09/23 00:37:12;;;;;;;12.30;11.30;;;8.50;84.40;;;;;;5008688;29;20049;-72
2021/09/23 00:39:44;;;;;;;13.10;11.98;;;8.50;84.40;;;;;;5010175;29;20047;-70
2021/09/23 00:42:16;;;;;;;12.90;11.77;;;8.50;83.90;;;;;;5008941;29;20046;-71
2021/09/23 00:44:57;;;;;;;13.65;12.32;;;8.50;84.30;;;;;;5007277;29;20054;-70
2021/09/23 00:47:29;;;;;;;12.85;11.68;;;8.50;84.00;;;;;;4997909;29;20045;-70
2021/09/23 00:50:04;;;;;;;13.75;12.45;;;8.50;84.20;;;;;;4977440;29;20583;-71
2021/09/23 00:52:40;;;;;;;12.75;11.65;;;8.50;84.10;;;;;;4999433;29;20049;-71
2021/09/23 00:55:13;;;;;;;12.57;11.40;;;8.40;83.70;;;;;;4998057;29;20053;-71
2021/09/23 00:57:45;;;;;;;12.60;11.50;;;8.40;84.00;;;;;;4993341;29;20053;-70
2021/09/23 01:00:18;;;;;;;12.93;11.70;;;8.40;83.50;;;;;;4991862;29;20157;-70
2021/09/23 01:03:20;;;;;;;14.32;13.02;;;8.40;84.10;;;;;;5002340;29;20050;-70
2021/09/23 01:05:58;;;;;;;14.32;12.93;;;8.40;83.70;;;;;;4998132;29;20084;-70
2021/09/23 01:08:30;;;;;;;14.40;13.10;;;8.40;84.10;;;;;;5010170;29;20181;-70
2021/09/23 01:11:03;;;;;;;13.85;12.48;;;8.20;84.60;;;;;;4997751;29;20219;-71
2021/09/23 01:13:37;;;;;;;14.07;12.88;;;8.20;84.40;;;;;;4991047;29;20104;-70
2021/09/23 01:16:12;;;;;;;13.35;12.00;;;8.10;85.00;;;;;;5006640;29;20417;-70
2021/09/23 01:19:06;;;;;;;13.85;12.65;;;8.10;84.50;;;;;;5002389;29;20050;-70
2021/09/23 01:21:39;;;;;;;12.77;11.68;;;8.10;83.80;;;;;;5012042;29;20785;-70
2021/09/23 01:24:13;;;;;;;13.00;11.70;;;8.00;83.80;;;;;;5013166;29;20057;-71
2021/09/23 01:26:48;;;;;;;13.32;12.07;;;7.90;84.20;;;;;;5010046;29;20058;-71
2021/09/23 01:29:39;;;;;;;12.93;11.77;;;8.00;83.90;;;;;;5002154;29;20053;-71
2021/09/23 01:32:19;;;;;;;12.77;11.68;;;7.90;83.90;;;;;;5011120;29;20049;-71
2021/09/23 01:34:54;;;;;;;13.00;11.90;;;8.00;83.80;;;;;;5009967;29;20054;-72
2021/09/23 01:37:26;;;;;;;13.27;12.18;;;8.00;83.40;;;;;;5011635;29;20056;-71
2021/09/23 01:40:00;;;;;;;13.38;12.18;;;8.00;83.30;;;;;;5001821;29;20169;-71
2021/09/23 01:42:32;;;;;;;14.15;12.95;;;7.90;83.30;;;;;;5010133;29;20547;-71
2021/09/23 01:45:05;;;;;;;13.35;12.15;;;7.90;83.60;;;;;;4971324;29;20116;-71
2021/09/23 01:47:45;;;;;;;13.43;12.27;;;7.90;83.80;;;;;;5001686;29;20287;-71
2021/09/23 01:50:20;;;;;;;13.73;12.63;;;7.90;83.60;;;;;;4980280;29;20057;-71
2021/09/23 01:52:55;;;;;;;12.27;11.27;;;7.80;83.40;;;;;;5010295;29;20163;-71
2021/09/23 01:55:27;;;;;;;13.27;12.18;;;7.80;83.40;;;;;;4999268;29;20053;-71
2021/09/23 01:58:02;;;;;;;13.18;12.07;;;7.80;84.20;;;;;;5000535;29;20091;-71
2021/09/23 02:00:39;;;;;;;13.73;12.52;;;7.80;83.80;;;;;;5010887;29;20046;-71
2021/09/23 02:03:13;;;;;;;13.07;11.88;;;7.80;84.00;;;;;;5012827;29;20118;-71
2021/09/23 02:06:09;;;;;;;13.20;12.10;;;7.80;84.70;;;;;;5009567;29;20202;-70
2021/09/23 02:08:42;;;;;;;12.95;11.85;;;7.70;84.90;;;;;;5009874;29;20053;-70
2021/09/23 02:11:14;;;;;;;12.90;11.80;;;7.80;84.80;;;;;;5010646;29;20053;-71
2021/09/23 02:13:53;;;;;;;12.75;11.75;;;7.80;84.70;;;;;;5010442;29;20054;-71
2021/09/23 02:16:26;;;;;;;13.40;12.30;;;7.80;84.50;;;;;;5010981;29;20050;-70
2021/09/23 02:19:01;;;;;;;13.10;11.90;;;7.90;84.60;;;;;;5001921;29;20077;-71
2021/09/23 02:21:35;;;;;;;12.60;11.50;;;7.80;85.10;;;;;;5010449;29;20711;-69
2021/09/23 02:24:07;;;;;;;13.32;12.02;;;7.80;84.50;;;;;;4995315;29;20097;-70
2021/09/23 02:26:39;;;;;;;13.07;11.98;;;7.80;85.10;;;;;;5008263;29;20061;-70
2021/09/23 02:29:11;;;;;;;13.70;12.40;;;7.70;85.00;;;;;;4984118;29;20061;-70
2021/09/23 02:31:43;;;;;;;13.57;12.27;;;7.60;86.80;;;;;;5011413;29;20049;-70
2021/09/23 02:34:15;;;;;;;13.27;11.80;;;7.60;86.30;;;;;;5015592;29;20054;-71
2021/09/23 02:36:47;;;;;;;13.43;12.18;;;7.60;86.40;;;;;;5009458;29;20042;-71
2021/09/23 02:39:19;;;;;;;13.90;12.60;;;7.60;86.10;;;;;;5010999;29;20168;-70
2021/09/23 02:41:51;;;;;;;13.18;12.07;;;7.60;87.20;;;;;;4984992;29;20132;-71
2021/09/23 02:44:23;;;;;;;14.13;12.82;;;7.60;86.40;;;;;;5012500;29;20673;-70
2021/09/23 02:46:55;;;;;;;13.35;12.15;;;7.60;86.50;;;;;;4994258;29;20049;-71
2021/09/23 02:49:27;;;;;;;13.20;12.00;;;7.60;86.40;;;;;;4985564;29;20061;-71
2021/09/23 02:51:59;;;;;;;13.25;12.05;;;7.50;86.10;;;;;;5015673;29;20584;-72
2021/09/23 02:54:31;;;;;;;13.63;12.43;;;7.40;85.80;;;;;;5009510;29;20061;-71
2021/09/23 02:57:03;;;;;;;13.40;12.30;;;7.50;85.90;;;;;;5010057;29;20500;-71
2021/09/23 02:59:36;;;;;;;13.65;12.48;;;7.50;85.80;;;;;;4993852;29;20049;-72
2021/09/23 03:02:08;;;;;;;12.80;11.70;;;7.50;85.10;;;;;;5015633;29;20038;-71
2021/09/23 03:04:41;;;;;;;12.98;11.88;;;7.40;84.90;;;;;;4995189;29;20163;-72
2021/09/23 03:07:13;;;;;;;12.98;11.88;;;7.40;85.20;;;;;;4985001;29;20684;-71
2021/09/23 03:09:45;;;;;;;13.13;12.07;;;7.40;85.20;;;;;;5011749;29;20053;-70
2021/09/23 03:12:19;;;;;;;13.13;12.02;;;7.40;85.00;;;;;;5015387;29;20135;-71
2021/09/23 03:14:52;;;;;;;14.02;12.73;;;7.40;84.70;;;;;;4995385;29;20117;-70
2021/09/23 03:17:24;;;;;;;13.50;12.27;;;7.50;84.70;;;;;;5009993;29;20042;-70
2021/09/23 03:19:56;;;;;;;12.27;11.07;;;7.40;84.40;;;;;;5014862;29;20056;-71
2021/09/23 03:22:28;;;;;;;12.63;11.52;;;7.40;84.10;;;;;;4995380;29;20677;-71
2021/09/23 03:25:00;;;;;;;13.20;12.10;;;7.40;83.80;;;;;;4996279;29;20069;-70
2021/09/23 03:27:33;;;;;;;12.43;11.43;;;7.20;84.10;;;;;;5009150;29;20083;-71
2021/09/23 03:30:05;;;;;;;13.32;12.23;;;7.20;84.20;;;;;;4994748;29;20046;-71
2021/09/23 03:32:37;;;;;;;13.27;12.18;;;7.20;84.40;;;;;;5012553;29;20053;-70
2021/09/23 03:35:09;;;;;;;12.50;11.38;;;7.20;84.50;;;;;;5009537;29;20054;-69
2021/09/23 03:37:41;;;;;;;12.93;11.82;;;7.20;83.90;;;;;;4994374;29;20053;-69
2021/09/23 03:40:13;;;;;;;12.52;11.52;;;7.20;84.10;;;;;;5011638;29;20049;-71
2021/09/23 03:42:46;;;;;;;12.57;11.43;;;7.20;84.40;;;;;;5009651;29;20038;-70
2021/09/23 03:45:18;;;;;;;12.40;11.27;;;7.20;84.10;;;;;;5011448;29;20565;-70
2021/09/23 03:47:51;;;;;;;12.07;11.07;;;7.20;84.10;;;;;;5008603;29;20409;-70
2021/09/23 03:50:24;;;;;;;11.68;10.73;;;7.20;84.40;;;;;;4993482;29;20053;-70
2021/09/23 03:52:56;;;;;;;11.23;10.32;;;7.20;84.70;;;;;;5000295;29;20050;-71
2021/09/23 03:55:28;;;;;;;11.65;10.55;;;7.20;85.70;;;;;;5008931;29;20056;-70
2021/09/23 03:58:00;;;;;;;12.45;11.38;;;7.20;85.90;;;;;;4993956;29;20551;-70
2021/09/23 04:00:32;;;;;;;18.42;16.63;;;7.20;86.00;;;;;;5009941;29;20049;-70
2021/09/23 04:03:04;;;;;;;13.00;11.90;;;7.20;85.20;;;;;;4994170;29;20532;-70
2021/09/23 04:05:36;;;;;;;12.73;11.63;;;7.20;84.60;;;;;;4993925;29;20054;-70
2021/09/23 04:08:08;;;;;;;12.93;11.82;;;7.20;84.20;;;;;;5009268;29;20057;-70
2021/09/23 04:10:40;;;;;;;12.32;11.23;;;7.20;84.30;;;;;;4999693;29;20050;-71
2021/09/23 04:13:13;;;;;;;12.70;11.60;;;7.10;84.10;;;;;;4984857;29;20061;-71
2021/09/23 04:15:51;;;;;;;12.52;11.30;;;7.10;83.80;;;;;;4976867;29;20049;-68
2021/09/23 04:18:24;;;;;;;12.75;11.65;;;7.00;83.60;;;;;;4978313;29;20087;-69
2021/09/23 04:20:56;;;;;;;12.57;11.48;;;6.90;83.80;;;;;;5008977;29;20049;-70
2021/09/23 04:23:28;;;;;;;12.70;11.60;;;6.90;84.10;;;;;;5008800;29;20054;-70
2021/09/23 04:26:00;;;;;;;12.02;10.95;;;6.90;84.10;;;;;;5007043;29;20053;-70
2021/09/23 04:28:32;;;;;;;11.63;10.63;;;6.80;84.50;;;;;;5008209;29;20076;-69
2021/09/23 04:31:04;;;;;;;12.50;11.50;;;6.80;84.50;;;;;;5009065;29;20057;-69
2021/09/23 04:33:38;;;;;;;11.85;10.75;;;6.80;85.40;;;;;;5008755;29;20050;-69
2021/09/23 04:36:10;;;;;;;13.27;11.98;;;6.70;85.60;;;;;;4983017;29;20057;-69
2021/09/23 04:38:43;;;;;;;12.15;11.05;;;6.70;86.00;;;;;;4999395;29;20427;-69
2021/09/23 04:41:19;;;;;;;12.65;11.45;;;6.70;85.80;;;;;;5008408;29;20038;-69
2021/09/23 04:43:51;;;;;;;12.23;10.93;;;6.50;87.30;;;;;;5008840;29;20138;-69
2021/09/23 04:46:24;;;;;;;12.82;11.52;;;6.30;87.70;;;;;;4997241;29;20050;-69
2021/09/23 04:49:02;;;;;;;11.60;10.50;;;6.30;88.10;;;;;;4999746;29;20530;-69
2021/09/23 04:51:34;;;;;;;11.88;10.77;;;6.30;87.80;;;;;;5008234;29;20057;-70
2021/09/23 04:54:07;;;;;;;11.80;10.70;;;6.30;87.60;;;;;;5013850;29;20042;-71
2021/09/23 04:56:39;;;;;;;11.30;10.40;;;6.40;87.10;;;;;;5018151;29;20045;-69
2021/09/23 04:59:11;;;;;;;11.73;10.73;;;6.40;86.80;;;;;;5002156;29;20122;-71
2021/09/23 05:01:43;;;;;;;11.82;10.77;;;6.40;86.70;;;;;;5002579;29;20488;-70
2021/09/23 05:04:16;;;;;;;11.30;10.20;;;6.40;86.10;;;;;;5014107;29;20065;-69
2021/09/23 05:06:48;;;;;;;11.90;10.80;;;6.20;86.50;;;;;;5010677;29;20078;-70
2021/09/23 05:09:20;;;;;;;11.40;10.30;;;6.10;87.00;;;;;;4997744;29;20057;-69
2021/09/23 05:11:52;;;;;;;11.77;10.68;;;6.00;87.20;;;;;;5018369;29;20068;-69
2021/09/23 05:14:24;;;;;;;11.27;10.18;;;6.10;86.90;;;;;;4995958;29;20053;-70
2021/09/23 05:16:56;;;;;;;11.20;10.20;;;6.10;87.40;;;;;;5012451;29;20151;-70
2021/09/23 05:19:28;;;;;;;11.65;10.38;;;6.10;87.00;;;;;;5013478;29;20151;-69
2021/09/23 05:22:00;;;;;;;11.05;10.05;;;6.20;86.30;;;;;;5012667;29;20103;-69
2021/09/23 05:24:32;;;;;;;10.15;9.25;;;6.20;86.00;;;;;;5012315;29;20176;-69
2021/09/23 05:27:04;;;;;;;10.85;9.85;;;6.20;85.80;;;;;;4992512;29;20060;-69
2021/09/23 05:29:36;;;;;;;11.13;10.13;;;6.30;85.40;;;;;;4995492;29;20086;-69
2021/09/23 05:32:08;;;;;;;11.43;9.82;;;6.30;85.50;;;;;;5011187;29;20534;-69
2021/09/23 05:34:40;;;;;;;10.30;9.40;;;6.30;85.50;;;;;;5013781;29;20423;-69
2021/09/23 05:37:12;;;;;;;10.85;9.32;;;6.30;85.20;;;;;;4999687;29;20148;-70
2021/09/23 05:39:45;;;;;;;11.05;9.60;;;6.40;85.30;;;;;;4994901;29;20517;-70
2021/09/23 05:42:17;;;;;;;10.48;9.43;;;6.40;85.60;;;;;;5011521;29;20052;-70
2021/09/23 05:44:49;;;;;;;9.93;8.93;;;6.40;85.90;;;;;;5012571;29;20584;-70
2021/09/23 05:47:21;;;;;;;10.30;9.30;;;6.50;85.80;;;;;;4999369;29;20087;-69
2021/09/23 05:49:53;;;;;;;10.70;9.73;;;6.60;85.40;;;;;;5010758;29;20057;-69
2021/09/23 05:52:25;;;;;;;10.60;9.60;;;6.80;85.30;;;;;;4996394;29;20060;-68
2021/09/23 05:54:58;;;;;;;10.98;9.98;;;6.80;86.20;;;;;;5010025;29;20091;-69
2021/09/23 05:57:33;;;;;;;12.10;10.80;;;7.00;87.00;;;;;;5010398;29;20049;-71
2021/09/23 06:00:07;;;;;;;12.05;10.85;;;7.00;87.60;;;;;;5012403;29;20102;-71
2021/09/23 06:02:45;;;;;;;10.98;9.98;;;7.00;88.60;;;;;;4984443;29;20053;-69
2021/09/23 06:05:18;;;;;;;11.35;10.25;;;7.00;88.50;;;;;;5009561;29;20061;-69
2021/09/23 06:07:50;;;;;;;11.27;10.27;;;7.20;88.50;;;;;;5010313;29;20052;-70
2021/09/23 06:10:22;;;;;;;10.43;9.52;;;7.40;88.00;;;;;;5010372;29;20137;-68
2021/09/23 06:12:54;;;;;;;10.77;9.82;;;7.50;87.60;;;;;;5014161;29;20520;-69
2021/09/23 06:15:26;;;;;;;9.90;9.00;;;7.70;87.00;;;;;;4994449;29;20169;-69
2021/09/23 06:17:58;;;;;;;10.90;9.90;;;7.90;86.90;;;;;;5011323;29;20551;-70
2021/09/23 06:20:30;;;;;;;11.10;10.10;;;8.00;87.20;;;;;;5008353;29;20075;-69
2021/09/23 06:23:02;;;;;;;11.02;10.02;;;8.20;87.20;;;;;;4992736;29;20548;-71
2021/09/23 06:25:37;;;;;;;10.73;9.82;;;8.30;86.50;;;;;;5007407;29;20049;-70
2021/09/23 06:28:10;;;;;;;11.48;10.43;;;8.50;86.00;;;;;;5005840;29;20041;-69
2021/09/23 06:30:42;;;;;;;11.23;10.25;;;8.70;85.60;;;;;;4968837;29;20492;-70
2021/09/23 06:33:14;;;;;;;11.30;10.30;;;8.80;85.00;;;;;;5007543;29;20046;-69
2021/09/23 06:35:46;;;;;;;11.00;10.10;;;8.90;84.40;;;;;;5009072;29;20054;-69
2021/09/23 06:38:18;;;;;;;10.80;9.85;;;8.90;85.00;;;;;;4997474;29;20061;-71
2021/09/23 06:40:54;;;;;;;12.25;11.20;;;9.10;84.20;;;;;;4971489;29;20048;-70
2021/09/23 06:43:26;;;;;;;13.05;11.23;;;9.20;84.70;;;;;;4990836;29;20085;-69
2021/09/23 06:45:58;;;;;;;12.02;10.93;;;9.40;84.70;;;;;;4994678;29;20223;-69
2021/09/23 06:48:30;;;;;;;12.15;11.15;;;9.50;84.60;;;;;;5005790;29;20465;-70
2021/09/23 06:51:02;;;;;;;12.10;11.05;;;9.60;84.80;;;;;;5008240;29;20062;-70
2021/09/23 06:53:34;;;;;;;11.93;11.02;;;9.60;84.30;;;;;;5008850;29;20114;-69
2021/09/23 06:56:06;;;;;;;12.20;11.18;;;9.70;84.20;;;;;;5009182;29;21355;-69
2021/09/23 06:58:38;;;;;;;12.57;11.48;;;9.90;84.10;;;;;;5007856;29;20049;-69
2021/09/23 07:01:30;;;;;;;12.80;11.00;;;10.00;83.60;;;;;;5008127;29;20102;-70
2021/09/23 07:04:31;;;;;;;17.55;11.13;;;10.20;83.40;;;;;;4992263;29;20065;-70
2021/09/23 07:07:14;;;;;;;11.93;10.93;;;10.30;83.30;;;;;;4984048;29;20128;-69
2021/09/23 07:09:50;;;;;;;12.52;11.38;;;10.50;82.60;;;;;;5008585;29;20041;-70
2021/09/23 07:12:35;;;;;;;11.80;10.80;;;10.60;82.20;;;;;;5014812;29;20596;-69
2021/09/23 07:15:08;;;;;;;11.88;10.98;;;10.80;81.30;;;;;;5007338;29;20046;-69
2021/09/23 07:17:40;;;;;;;12.75;11.38;;;10.90;80.70;;;;;;4994359;29;20056;-70
2021/09/23 07:20:12;;;;;;;12.35;11.35;;;11.00;81.10;;;;;;4984251;29;20053;-69
2021/09/23 07:22:44;;;;;;;13.05;11.85;;;11.20;80.80;;;;;;4994782;29;20470;-70
2021/09/23 07:25:18;;;;;;;13.18;12.13;;;11.40;81.00;;;;;;4995183;29;20049;-70
2021/09/23 07:27:51;;;;;;;13.10;11.90;;;11.50;80.80;;;;;;5000055;29;20054;-70
2021/09/23 07:30:24;;;;;;;12.85;11.75;;;11.70;80.20;;;;;;4993480;29;20054;-70
2021/09/23 07:32:56;;;;;;;13.20;12.10;;;11.80;79.40;;;;;;5009948;29;20041;-69
2021/09/23 07:35:28;;;;;;;13.38;12.30;;;11.90;79.60;;;;;;4978611;29;20097;-70
2021/09/23 07:38:01;;;;;;;13.05;12.05;;;11.90;77.80;;;;;;4998569;29;20803;-68
2021/09/23 07:40:33;;;;;;;13.02;11.80;;;12.00;79.40;;;;;;4999205;29;20042;-69
2021/09/23 07:43:05;;;;;;;13.48;12.38;;;12.10;78.80;;;;;;5006720;29;20045;-69
2021/09/23 07:45:37;;;;;;;12.77;11.77;;;12.10;79.10;;;;;;5006158;29;20068;-69
2021/09/23 07:48:09;;;;;;;12.65;11.65;;;12.30;79.80;;;;;;5008980;29;20818;-68
2021/09/23 07:50:42;;;;;;;12.55;11.55;;;12.50;79.30;;;;;;5009248;29;20478;-68
2021/09/23 07:53:15;;;;;;;12.82;11.93;;;12.60;78.00;;;;;;4992138;29;20140;-69
2021/09/23 07:55:47;;;;;;;12.60;11.50;;;12.70;77.70;;;;;;5007152;29;20077;-70
2021/09/23 07:58:21;;;;;;;13.40;12.40;;;12.80;77.60;;;;;;4985487;29;20152;-69
2021/09/23 08:00:53;;;;;;;13.07;12.07;;;12.90;77.60;;;;;;5008283;29;20042;-68
2021/09/23 08:03:25;;;;;;;13.30;12.30;;;12.90;78.30;;;;;;5008350;29;20053;-69
2021/09/23 08:05:57;;;;;;;12.50;11.57;;;12.90;77.10;;;;;;5007062;29;20069;-69
2021/09/23 08:08:29;;;;;;;13.98;12.77;;;12.90;77.80;;;;;;5005670;29;20045;-69
2021/09/23 08:11:02;;;;;;;13.43;12.23;;;13.10;77.80;;;;;;4999524;29;20683;-69
2021/09/23 08:13:34;;;;;;;13.68;12.65;;;13.10;78.50;;;;;;4998405;29;20057;-69
2021/09/23 08:16:06;;;;;;;13.02;11.90;;;13.30;79.60;;;;;;5007340;29;20045;-69
2021/09/23 08:18:59;;;;;;;13.38;12.32;;;13.40;78.10;;;;;;5007980;29;21748;-69
2021/09/23 08:21:49;;;;;;;13.38;12.35;;;13.50;77.20;;;;;;4998312;29;20061;-69
2021/09/23 08:24:21;;;;;;;13.75;12.65;;;13.60;78.40;;;;;;4975503;29;20041;-69
2021/09/23 08:26:53;;;;;;;13.27;12.18;;;13.70;79.30;;;;;;5006952;29;20073;-68
2021/09/23 08:29:27;;;;;;;13.15;12.05;;;13.90;78.00;;;;;;4997317;29;20137;-70
2021/09/23 08:31:59;;;;;;;13.00;12.00;;;14.10;79.30;;;;;;5003248;29;20081;-70
2021/09/23 08:34:32;;;;;;;14.15;13.05;;;14.30;79.30;;;;;;5014101;29;20061;-70
2021/09/23 08:37:04;;;;;;;13.52;12.45;;;14.40;78.30;;;;;;4983484;29;20128;-69
2021/09/23 08:39:36;;;;;;;13.82;12.82;;;14.50;78.10;;;;;;5011883;29;20050;-69
2021/09/23 08:42:09;;;;;;;13.57;12.57;;;14.60;74.70;;;;;;5001984;29;20052;-69
2021/09/23 08:44:42;;;;;;;14.55;13.25;;;14.70;72.60;;;;;;5012884;29;20049;-69
2021/09/23 08:47:16;;;;;;;13.93;12.93;;;14.80;74.60;;;;;;5002074;29;20073;-69
2021/09/23 08:49:49;;;;;;;13.07;12.18;;;14.90;73.50;;;;;;5013094;29;20053;-70
2021/09/23 08:52:23;;;;;;;14.35;13.25;;;15.00;72.40;;;;;;4997980;29;20073;-69
2021/09/23 08:54:56;;;;;;;13.88;12.88;;;15.20;71.60;;;;;;5015483;29;20053;-69
2021/09/23 08:57:28;;;;;;;14.55;13.20;;;15.30;74.10;;;;;;5001148;29;20057;-70
2021/09/23 09:00:07;;;;;;;13.90;12.90;;;15.40;74.20;;;;;;5011468;29;20241;-69
2021/09/23 09:02:41;;;;;;;14.27;13.18;;;15.50;71.90;;;;;;4986821;29;20061;-70
2021/09/23 09:05:25;;;;;;;13.00;12.00;;;15.50;70.00;;;;;;4989132;29;20681;-70
2021/09/23 09:08:20;;;;;;;13.60;12.65;;;15.60;72.10;;;;;;4997201;29;20064;-70
2021/09/23 09:11:12;;;;;;;14.25;13.25;;;15.70;71.00;;;;;;5013019;29;20061;-69
2021/09/23 09:13:46;;;;;;;13.70;12.70;;;15.80;72.00;;;;;;5010876;29;20096;-69
2021/09/23 09:16:22;;;;;;;14.32;13.23;;;15.90;72.10;;;;;;5009977;29;20073;-71
2021/09/23 09:18:57;;;;;;;14.23;13.23;;;16.00;71.00;;;;;;5016563;29;20057;-70
2021/09/23 09:21:30;;;;;;;14.13;13.02;;;16.20;74.50;;;;;;4983248;29;20050;-69
2021/09/23 09:24:06;;;;;;;14.95;13.85;;;16.20;68.40;;;;;;5010729;29;20054;-69
2021/09/23 09:26:43;;;;;;;14.10;12.90;;;16.30;72.00;;;;;;4999988;29;20064;-70
2021/09/23 09:29:23;;;;;;;14.95;13.68;;;16.40;69.90;;;;;;5011575;29;20136;-69
2021/09/23 09:31:55;;;;;;;14.52;13.35;;;16.50;71.90;;;;;;4996380;29;20096;-69
2021/09/23 09:34:27;;;;;;;14.57;13.45;;;16.60;69.60;;;;;;5010193;29;20084;-71
2021/09/23 09:37:07;;;;;;;14.85;13.65;;;16.70;71.80;;;;;;4977393;29;20113;-71
2021/09/23 09:39:56;;;;;;;14.48;13.18;;;16.70;70.80;;;;;;5012637;29;20191;-70
2021/09/23 09:42:29;;;;;;;14.05;12.98;;;16.90;70.60;;;;;;4998124;29;20436;-70
2021/09/23 09:45:04;;;;;;;14.45;13.35;;;16.90;70.90;;;;;;5010568;29;20113;-70
2021/09/23 09:47:38;;;;;;;15.30;14.10;;;17.00;71.00;;;;;;5016034;29;20041;-70
2021/09/23 09:50:15;;;;;;;14.27;13.07;;;17.10;71.00;;;;;;4982520;29;20472;-70
2021/09/23 09:52:50;;;;;;;14.40;13.30;;;17.20;70.60;;;;;;5017328;29;20923;-70
2021/09/23 09:55:23;;;;;;;14.55;13.35;;;17.20;69.30;;;;;;4996032;29;20050;-70
2021/09/23 09:57:55;;;;;;;15.48;14.05;;;17.30;68.40;;;;;;5013487;29;20127;-70
2021/09/23 10:00:29;;;;;;;15.05;13.85;;;17.40;67.00;;;;;;5014908;29;20049;-70
2021/09/23 10:03:02;;;;;;;14.82;13.73;;;17.40;68.60;;;;;;5009728;29;20049;-70
2021/09/23 10:05:42;;;;;;;14.85;13.65;;;17.50;70.80;;;;;;4996904;29;20512;-71
2021/09/23 10:08:17;;;;;;;15.23;14.02;;;17.70;69.30;;;;;;5012676;29;20445;-70
2021/09/23 10:10:49;;;;;;;15.82;14.43;;;17.80;69.20;;;;;;5001011;29;20041;-70
2021/09/23 10:13:24;;;;;;;16.00;14.80;;;17.90;70.60;;;;;;4996396;29;20057;-70
2021/09/23 10:15:58;;;;;;;15.30;14.20;;;18.00;67.80;;;;;;5011560;29;20046;-70
2021/09/23 10:18:30;;;;;;;15.38;14.27;;;18.10;66.70;;;;;;4998441;29;20049;-71
2021/09/23 10:21:02;;;;;;;15.50;14.40;;;18.10;66.10;;;;;;5008307;29;20635;-70
2021/09/23 10:23:40;;;;;;;14.50;13.45;;;18.20;68.10;;;;;;5010619;29;20130;-71
2021/09/23 10:26:15;;;;;;;14.60;13.40;;;18.30;68.70;;;;;;4995603;29;20105;-71
2021/09/23 10:28:49;;;;;;;15.65;14.45;;;18.40;67.80;;;;;;4984565;29;20556;-71
2021/09/23 10:31:24;;;;;;;15.88;14.57;;;18.50;66.10;;;;;;4997407;29;20185;-71
2021/09/23 10:34:01;;;;;;;14.93;13.82;;;18.60;68.50;;;;;;5001104;29;20049;-71
2021/09/23 10:36:35;;;;;;;15.20;14.10;;;18.60;64.70;;;;;;5008381;29;20048;-71
2021/09/23 10:39:10;;;;;;;15.00;13.90;;;18.50;65.30;;;;;;5000899;29;20098;-71
2021/09/23 10:41:44;;;;;;;15.00;14.00;;;18.60;62.00;;;;;;5009312;29;20046;-71
2021/09/23 10:44:17;;;;;;;16.00;14.90;;;18.50;62.80;;;;;;5013998;29;20566;-71
2021/09/23 10:46:52;;;;;;;16.58;15.45;;;18.60;62.60;;;;;;5008892;29;20046;-71
2021/09/23 10:49:26;;;;;;;16.10;14.90;;;18.70;59.60;;;;;;4985140;29;20069;-71
2021/09/23 10:52:02;;;;;;;15.82;14.63;;;18.70;59.40;;;;;;5007859;29;20045;-70
2021/09/23 10:54:34;;;;;;;16.05;14.85;;;18.80;63.10;;;;;;5008510;29;20144;-71
2021/09/23 10:57:07;;;;;;;15.70;14.60;;;18.80;63.20;;;;;;4997347;29;20061;-72
2021/09/23 10:59:42;;;;;;;17.42;16.00;;;18.80;62.00;;;;;;4995692;29;20045;-71
2021/09/23 11:02:31;;;;;;;16.90;15.57;;;19.00;64.30;;;;;;5006449;29;20052;-70
2021/09/23 11:05:12;;;;;;;16.48;15.10;;;19.10;64.20;;;;;;4999307;29;20868;-72
2021/09/23 11:07:46;;;;;;;15.77;14.55;;;19.20;59.60;;;;;;5004744;29;20198;-72
2021/09/23 11:10:19;;;;;;;16.55;15.25;;;19.20;58.60;;;;;;5006699;29;20058;-72
2021/09/23 11:12:56;;;;;;;15.95;14.85;;;19.30;62.30;;;;;;5014458;29;20061;-71
2021/09/23 11:15:30;;;;;;;16.20;15.00;;;19.30;60.70;;;;;;5007869;29;20050;-72
2021/09/23 11:18:03;;;;;;;16.38;15.18;;;19.40;58.60;;;;;;5008026;29;20063;-71
2021/09/23 11:20:38;;;;;;;16.88;15.57;;;19.40;58.00;;;;;;5008119;29;20572;-71
2021/09/23 11:23:14;;;;;;;16.67;15.48;;;19.50;59.90;;;;;;4978838;29;20202;-71
2021/09/23 11:25:49;;;;;;;16.80;15.60;;;19.60;61.20;;;;;;5012268;29;20515;-71
2021/09/23 11:28:29;;;;;;;17.02;15.82;;;19.60;57.90;;;;;;5000252;29;20529;-71
2021/09/23 11:31:01;;;;;;;17.05;15.75;;;19.70;58.40;;;;;;5007817;29;20074;-71
2021/09/23 11:33:36;;;;;;;16.58;15.27;;;19.70;60.50;;;;;;5008097;29;20063;-71
2021/09/23 11:36:08;;;;;;;16.60;15.43;;;19.80;58.00;;;;;;4991656;29;20120;-72
2021/09/23 11:38:41;;;;;;;16.60;15.30;;;19.90;58.50;;;;;;4997448;29;21018;-71
2021/09/23 11:41:14;;;;;;;16.55;15.35;;;19.90;58.30;;;;;;5008470;29;20069;-72
2021/09/23 11:43:48;;;;;;;16.65;15.52;;;19.90;56.70;;;;;;5008175;29;20053;-71
2021/09/23 11:46:31;;;;;;;16.30;15.20;;;20.00;58.30;;;;;;4976264;29;20049;-70
2021/09/23 11:49:05;;;;;;;17.17;15.98;;;20.00;50.80;;;;;;5008869;29;20057;-69
2021/09/23 11:51:37;;;;;;;16.98;15.73;;;20.00;57.60;;;;;;4996866;29;20179;-70
2021/09/23 11:54:10;;;;;;;16.73;15.63;;;20.10;57.20;;;;;;5009883;29;20202;-70
2021/09/23 11:56:42;;;;;;;16.85;15.65;;;20.20;57.40;;;;;;4973702;29;20041;-70
2021/09/23 11:59:24;;;;;;;16.17;15.07;;;20.20;54.00;;;;;;4996480;29;20057;-71
2021/09/23 12:02:01;;;;;;;16.42;15.23;;;20.30;58.50;;;;;;5009369;29;20048;-71
2021/09/23 12:04:35;;;;;;;16.67;15.48;;;20.40;53.20;;;;;;5007306;29;20140;-70
2021/09/23 12:07:08;;;;;;;17.08;15.98;;;20.40;56.30;;;;;;5008503;29;20046;-70
2021/09/23 12:10:14;;;;;;;16.65;15.55;;;20.50;56.50;;;;;;4998152;29;20046;-71
2021/09/23 12:12:59;;;;;;;17.25;15.77;;;20.50;51.70;;;;;;5012549;29;20053;-71
2021/09/23 12:15:35;;;;;;;17.13;15.93;;;20.50;52.80;;;;;;4991396;29;20401;-70
2021/09/23 12:18:11;;;;;;;17.60;16.40;;;20.50;51.60;;;;;;5003532;29;20057;-70
2021/09/23 12:20:55;;;;;;;16.40;15.20;;;20.50;50.50;;;;;;5007551;29;20049;-70
2021/09/23 12:23:31;;;;;;;17.10;15.90;;;20.50;53.80;;;;;;5009297;29;20068;-70
2021/09/23 12:26:06;;;;;;;16.92;15.82;;;20.50;53.00;;;;;;5006516;29;20096;-71
2021/09/23 12:28:40;;;;;;;16.65;15.45;;;20.60;55.10;;;;;;5006375;29;20049;-70
2021/09/23 12:31:14;;;;;;;16.63;15.52;;;20.60;54.60;;;;;;5007673;29;20061;-70
2021/09/23 12:33:53;;;;;;;17.13;15.93;;;20.60;54.90;;;;;;5009729;29;20045;-70
2021/09/23 12:36:34;;;;;;;;;;;20.60;50.90;;;;;;5005790;29;20145;-70
2021/09/23 12:39:19;;;;;;;17.00;15.80;;;20.60;53.20;;;;;;5005029;29;19967;-70
2021/09/23 12:41:53;;;;;;;17.65;16.30;;;20.70;53.00;;;;;;4992738;29;20594;-70
2021/09/23 12:44:28;;;;;;;17.38;16.08;;;20.60;49.90;;;;;;5008054;29;20414;-70
2021/09/23 12:47:15;;;;;;;17.27;16.08;;;20.70;49.70;;;;;;5007250;29;20046;-70
2021/09/23 12:49:50;;;;;;;17.73;16.42;;;20.70;50.00;;;;;;5007351;29;20060;-71
2021/09/23 12:52:36;;;;;;;16.77;15.68;;;20.70;52.10;;;;;;4993538;29;20052;-71
2021/09/23 12:55:17;;;;;;;17.20;16.00;;;20.80;52.10;;;;;;4988655;29;20057;-71
2021/09/23 12:57:58;;;;;;;16.90;15.70;;;20.80;49.20;;;;;;5002919;29;20148;-70
2021/09/23 13:00:47;;;;;;;17.65;16.30;;;20.80;52.90;;;;;;5004383;29;20425;-70
2021/09/23 13:03:20;;;;;;;17.60;16.38;;;20.80;53.10;;;;;;5006372;29;20134;-69
2021/09/23 13:06:04;;;;;;;17.48;16.27;;;20.80;53.40;;;;;;4994915;29;20054;-69
2021/09/23 13:08:44;;;;;;;17.48;16.27;;;20.80;52.60;;;;;;5006998;29;20061;-70
2021/09/23 13:11:19;;;;;;;17.58;16.38;;;20.80;53.40;;;;;;4974643;29;20073;-70
2021/09/23 13:14:27;;;;;;;17.73;16.42;;;20.90;51.60;;;;;;5004445;29;20054;-71